Time;durP1;ratioP1;P1;durP2;ratioP2;P2;SDS_P1;SDS_P2;PMS_P1;PMS_P2;Temp;Humidity;BMP_temperature;BMP_pressure;BME280_temperature;BME280_humidity;BME280_pressure;Samples;Min_cycle;Max_cycle;Signal;HPM_P1;HPM_P2
2023/02/20 00:01:31;;;;;;;3.50;1.35;;;;;;;9.34;100.00;101741.56;5000072;28;20022;-80
2023/02/20 00:04:05;;;;;;;4.03;1.42;;;;;;;9.38;100.00;101742.13;4999691;28;20107;-80
2023/02/20 00:06:30;;;;;;;;;;;;;;;9.43;100.00;101748.75;5000148;28;20034;-80
2023/02/20 00:08:56;;;;;;;2.47;1.42;;;;;;;9.36;100.00;101739.56;5015948;28;19918;-80
2023/02/20 00:11:22;;;;;;;4.10;2.13;;;;;;;9.28;100.00;101731.38;4999349;28;20038;-81
2023/02/20 00:13:48;;;;;;;2.63;1.08;;;;;;;9.34;100.00;101721.91;4999666;28;20116;-80
2023/02/20 00:16:14;;;;;;;2.55;1.52;;;;;;;9.41;100.00;101729.25;4999728;28;20053;-80
2023/02/20 00:18:41;;;;;;;3.40;1.45;;;;;;;9.48;100.00;101728.69;5015973;28;20153;-80
2023/02/20 00:21:10;;;;;;;1.80;1.30;;;;;;;9.44;100.00;101733.47;5015842;28;20503;-79
2023/02/20 00:23:39;;;;;;;1.70;1.20;;;;;;;9.50;100.00;101732.91;4999378;28;20070;-81
2023/02/20 00:26:11;;;;;;;1.50;1.05;;;;;;;9.32;100.00;101703.28;5015590;28;20530;-79
2023/02/20 00:28:38;;;;;;;3.58;1.10;;;;;;;9.54;100.00;101737.00;4983395;28;20099;-81
2023/02/20 00:31:06;;;;;;;1.55;0.95;;;;;;;9.23;100.00;101677.28;4999061;28;20117;-80
2023/02/20 00:33:32;;;;;;;4.28;1.10;;;;;;;9.50;100.00;101730.22;5015822;28;20042;-80
2023/02/20 00:35:59;;;;;;;2.85;1.13;;;;;;;9.54;100.00;101717.34;4999372;28;20036;-80
2023/02/20 00:38:25;;;;;;;2.85;1.27;;;;;;;9.41;100.00;101706.94;4998791;28;20061;-79
2023/02/20 00:40:50;;;;;;;3.10;1.20;;;;;;;9.60;100.00;101722.97;5015512;28;20061;-80
2023/02/20 00:43:16;;;;;;;2.72;1.02;;;;;;;9.53;100.00;101708.47;5016519;28;20030;-80
2023/02/20 00:45:45;;;;;;;4.70;1.52;;;;;;;9.48;100.00;101699.16;4983133;28;20038;-80
2023/02/20 00:48:11;;;;;;;2.40;1.23;;;;;;;9.54;100.00;101695.88;5015730;28;20484;-80
2023/02/20 00:50:39;;;;;;;5.18;1.63;;;;;;;9.62;100.00;101717.47;5014899;28;20025;-80
2023/02/20 00:53:07;;;;;;;3.33;1.00;;;;;;;9.62;100.00;101717.47;5015060;28;20472;-80
2023/02/20 00:55:33;;;;;;;6.05;1.30;;;;;;;9.61;100.00;101730.06;4994482;28;20030;-79
2023/02/20 00:57:59;;;;;;;6.68;1.55;;;;;;;9.62;100.00;101717.47;5014383;28;20041;-80
2023/02/20 01:00:27;;;;;;;2.97;1.50;;;;;;;9.66;100.00;101708.97;4999039;28;20034;-80
2023/02/20 01:02:53;;;;;;;2.70;1.08;;;;;;;9.48;100.00;101702.69;5014849;28;20105;-81
2023/02/20 01:05:19;;;;;;;4.22;1.38;;;;;;;9.31;100.00;101681.94;4998275;28;20516;-79
2023/02/20 01:07:47;;;;;;;5.13;1.52;;;;;;;9.24;100.00;101674.47;5014776;28;20030;-79
2023/02/20 01:10:16;;;;;;;2.22;1.38;;;;;;;9.45;100.00;101713.72;4998879;28;20531;-79
2023/02/20 01:12:44;;;;;;;3.80;1.20;;;;;;;9.24;100.00;101687.91;4999127;28;20400;-79
2023/02/20 01:15:17;;;;;;;4.53;1.45;;;;;;;9.42;100.00;101705.91;4998576;28;20030;-79
2023/02/20 01:17:42;;;;;;;8.75;2.00;;;;;;;9.39;100.00;101704.41;4998562;28;20041;-80
2023/02/20 01:20:09;;;;;;;3.30;1.20;;;;;;;9.36;100.00;101691.25;4998195;28;20030;-80
2023/02/20 01:22:35;;;;;;;5.95;1.58;;;;;;;9.42;100.00;101695.19;5014415;28;20117;-80
2023/02/20 01:25:01;;;;;;;5.57;1.40;;;;;;;9.49;100.00;101708.88;5014413;28;20164;-80
2023/02/20 01:27:34;;;;;;;7.00;1.70;;;;;;;9.38;100.00;101694.63;5014488;28;20030;-80
2023/02/20 01:29:59;;;;;;;5.15;1.50;;;;;;;9.25;100.00;101686.06;4998245;28;20109;-81
2023/02/20 01:32:26;;;;;;;4.28;1.42;;;;;;;9.33;100.00;101706.81;4997771;28;20184;-79
2023/02/20 01:34:54;;;;;;;4.20;1.05;;;;;;;9.20;100.00;101678.44;5031051;28;20488;-79
2023/02/20 01:37:21;;;;;;;2.58;1.10;;;;;;;9.25;100.00;101696.78;5014170;28;20030;-79
2023/02/20 01:39:48;;;;;;;5.47;1.40;;;;;;;9.31;100.00;101698.03;4998423;28;20071;-79
2023/02/20 01:42:19;;;;;;;4.32;1.20;;;;;;;9.28;100.00;101684.91;4997962;28;20145;-79
2023/02/20 01:44:45;;;;;;;5.60;1.15;;;;;;;9.34;100.00;101700.44;4997681;28;20476;-79
2023/02/20 01:47:21;;;;;;;7.07;1.67;;;;;;;9.29;100.00;101687.47;5014157;28;20049;-79
2023/02/20 01:50:02;;;;;;;3.83;1.30;;;;;;;9.28;100.00;101684.91;4997655;28;20057;-81
2023/02/20 01:52:31;;;;;;;6.10;1.80;;;;;;;9.36;100.00;101685.03;5014099;28;20084;-79
2023/02/20 01:55:05;;;;;;;5.13;1.58;;;;;;;9.30;100.00;101683.78;4981937;28;20099;-79
2023/02/20 01:57:32;;;;;;;6.68;1.85;;;;;;;9.23;100.00;101662.06;5013943;28;20392;-80
2023/02/20 02:00:10;;;;;;;6.28;1.10;;;;;;;9.39;100.00;101679.38;4998305;28;20376;-79
2023/02/20 02:02:45;;;;;;;7.00;1.60;;;;;;;9.37;100.00;101671.50;4997847;28;20476;-80
2023/02/20 02:05:11;;;;;;;7.25;1.75;;;;;;;9.34;100.00;101654.81;4998263;28;20030;-79
2023/02/20 02:07:40;;;;;;;4.50;1.25;;;;;;;9.42;100.00;101668.34;4997123;28;20034;-79
2023/02/20 02:10:09;;;;;;;6.53;1.63;;;;;;;9.34;100.00;101646.75;4981121;28;20030;-79
2023/02/20 02:12:35;;;;;;;4.97;1.60;;;;;;;9.29;100.00;101635.59;4996895;28;20045;-80
2023/02/20 02:15:03;;;;;;;4.47;1.45;;;;;;;9.47;100.00;101663.38;5013309;28;20026;-80
2023/02/20 02:17:58;;;;;;;3.83;1.20;;;;;;;9.50;100.00;101662.25;4981508;28;20040;-79
2023/02/20 02:21:07;;;;;;;7.43;1.70;;;;;;;9.52;100.00;101666.47;5013434;28;20041;-79
2023/02/20 02:24:09;;;;;;;10.70;1.90;;;;;;;9.60;100.00;101663.06;5013385;28;20046;-80
2023/02/20 02:26:58;;;;;;;5.10;1.65;;;;;;;9.64;100.00;101661.78;4997817;28;20029;-79
2023/02/20 02:29:39;;;;;;;21.00;2.40;;;;;;;9.62;100.00;101666.44;5013226;28;20494;-80
2023/02/20 02:32:53;;;;;;;7.13;1.38;;;;;;;9.65;100.00;101677.72;5013172;28;20025;-80
2023/02/20 02:35:30;;;;;;;7.32;1.65;;;;;;;9.67;100.00;101665.00;4981025;28;20092;-80
2023/02/20 02:38:05;;;;;;;6.10;1.83;;;;;;;9.66;100.00;101667.88;4980605;28;20029;-81
2023/02/20 02:40:36;;;;;;;7.95;1.42;;;;;;;9.63;100.00;101671.69;5013468;28;20040;-80
2023/02/20 02:43:17;;;;;;;7.80;1.98;;;;;;;9.65;100.00;101658.09;5029618;28;20045;-80
2023/02/20 02:45:54;;;;;;;7.50;2.03;;;;;;;9.58;100.00;101648.94;5013411;28;20049;-79
2023/02/20 02:49:13;;;;;;;7.88;1.70;;;;;;;9.58;100.00;101660.53;5012820;28;20022;-79
2023/02/20 02:51:42;;;;;;;11.93;1.92;;;;;;;9.40;100.00;101643.50;4980354;28;20057;-79
2023/02/20 02:54:14;;;;;;;9.77;1.58;;;;;;;9.44;100.00;101647.56;5012620;28;20538;-79
2023/02/20 02:56:47;;;;;;;8.65;2.25;;;;;;;9.40;100.00;101654.25;4980738;28;20079;-80
2023/02/20 02:59:23;;;;;;;12.02;2.22;;;;;;;9.37;100.00;101647.31;5012869;28;20030;-79
2023/02/20 03:01:52;;;;;;;;;;;;;;;9.48;100.00;101670.47;4981367;28;20093;-80
2023/02/20 03:04:22;;;;;;;9.38;2.38;;;;;;;9.49;100.00;101674.00;4980459;28;19917;-79
2023/02/20 03:06:52;;;;;;;6.93;1.83;;;;;;;9.47;100.00;101666.06;4980788;28;20124;-80
2023/02/20 03:09:32;;;;;;;9.02;2.00;;;;;;;9.45;100.00;101665.38;4996297;28;20377;-80
2023/02/20 03:12:04;;;;;;;11.52;2.33;;;;;;;9.45;100.00;101657.34;5012755;28;20491;-79
2023/02/20 03:18:34;;;;;;;10.23;2.08;;;;;;;9.44;100.00;101658.31;4972444;28;20031;-80
2023/02/20 03:21:13;;;;;;;13.20;2.17;;;;;;;9.35;100.00;101643.09;4996305;28;20115;-79
2023/02/20 03:23:42;;;;;;;4.63;1.67;;;;;;;9.33;100.00;101640.53;4997276;28;20128;-79
2023/02/20 03:26:18;;;;;;;15.10;1.85;;;;;;;9.29;100.00;101640.97;4996427;28;20455;-79
2023/02/20 03:29:10;;;;;;;9.20;1.73;;;;;;;9.36;100.00;101650.97;4996332;28;20033;-80
2023/02/20 03:31:47;;;;;;;9.60;2.13;;;;;;;9.37;100.00;101644.66;5009916;28;20472;-79
2023/02/20 03:45:45;;;;;;;8.55;1.85;;;;;;;9.40;100.00;101647.03;5012538;28;20034;-79
2023/02/20 03:48:35;;;;;;;15.23;2.55;;;;;;;9.43;100.00;101651.25;5011830;28;20037;-79
2023/02/20 03:51:10;;;;;;;6.25;1.45;;;;;;;9.11;100.00;101593.44;4976204;28;20037;-79
2023/02/20 03:53:37;;;;;;;13.85;2.20;;;;;;;9.37;100.00;101630.38;5011920;28;20038;-80
2023/02/20 03:56:08;;;;;;;6.50;1.58;;;;;;;9.43;100.00;101636.00;4995745;28;20129;-79
2023/02/20 03:58:39;;;;;;;12.63;2.08;;;;;;;9.53;100.00;101646.72;4981085;28;20092;-79
2023/02/20 04:01:09;;;;;;;14.15;2.65;;;;;;;9.52;100.00;101639.63;5011750;28;20034;-79
2023/02/20 04:03:39;;;;;;;14.10;2.53;;;;;;;9.33;100.00;101600.28;5012558;28;20108;-79
2023/02/20 04:06:07;;;;;;;6.78;2.13;;;;;;;9.58;100.00;101635.50;4979752;28;20487;-82
2023/02/20 04:08:38;;;;;;;12.38;1.65;;;;;;;9.58;100.00;101639.06;4979273;28;20117;-79
2023/02/20 04:11:15;;;;;;;10.40;1.30;;;;;;;9.60;100.00;101631.69;4995905;28;20037;-79
2023/02/20 04:13:41;;;;;;;11.27;2.42;;;;;;;9.55;100.00;101633.13;5028202;28;20030;-81
2023/02/20 04:16:07;;;;;;;11.32;2.78;;;;;;;9.55;100.00;101627.75;5011371;28;20117;-79
2023/02/20 04:18:38;;;;;;;13.23;2.17;;;;;;;9.56;100.00;101626.78;4996494;28;20037;-79
2023/02/20 04:21:13;;;;;;;9.07;1.65;;;;;;;9.53;100.00;101622.53;4980044;28;20076;-79
2023/02/20 04:23:40;;;;;;;5.45;1.63;;;;;;;9.59;100.00;101635.38;5011857;28;20025;-79
2023/02/20 04:26:09;;;;;;;5.80;1.08;;;;;;;9.46;100.00;101610.69;4995626;28;20058;-79
2023/02/20 04:28:35;;;;;;;8.82;1.92;;;;;;;9.55;100.00;101628.63;5011726;28;20034;-80
2023/02/20 04:31:03;;;;;;;6.10;1.35;;;;;;;9.58;100.00;101632.81;4995558;28;20057;-79
2023/02/20 04:33:33;;;;;;;7.38;1.30;;;;;;;9.60;100.00;101636.22;5012133;28;20481;-79
2023/02/20 04:36:01;;;;;;;8.57;1.27;;;;;;;9.56;100.00;101626.78;4995583;28;20494;-79
2023/02/20 04:38:30;;;;;;;9.23;1.80;;;;;;;9.59;100.00;101634.53;4999785;28;20029;-80
2023/02/20 04:40:58;;;;;;;7.28;1.30;;;;;;;9.54;100.00;101626.06;5015841;28;20038;-79
2023/02/20 04:43:24;;;;;;;6.00;1.10;;;;;;;9.50;100.00;101620.16;4982884;28;20056;-80
2023/02/20 04:46:03;;;;;;;10.15;1.65;;;;;;;9.54;100.00;101616.16;5015431;28;20026;-80
2023/02/20 04:48:31;;;;;;;4.65;1.42;;;;;;;9.64;100.00;101619.66;4999345;28;20113;-80
2023/02/20 04:50:59;;;;;;;8.38;1.60;;;;;;;9.46;100.00;101597.28;4998172;28;20026;-80
2023/02/20 04:53:26;;;;;;;4.53;1.35;;;;;;;9.58;100.00;101622.06;4983200;28;20034;-79
2023/02/20 04:55:57;;;;;;;12.90;1.83;;;;;;;9.56;100.00;101603.44;5016061;28;20042;-79
2023/02/20 04:58:27;;;;;;;8.57;1.85;;;;;;;9.57;100.00;101606.97;4982650;28;20092;-79
2023/02/20 05:00:53;;;;;;;7.85;2.50;;;;;;;9.54;100.00;101593.84;4998774;28;20115;-79
2023/02/20 05:03:19;;;;;;;4.65;1.23;;;;;;;9.54;100.00;101600.06;5014646;28;20468;-79
2023/02/20 05:05:44;;;;;;;14.60;2.92;;;;;;;9.53;100.00;101602.91;4998707;28;20029;-80
2023/02/20 05:08:15;;;;;;;13.00;1.92;;;;;;;9.66;100.00;101615.00;5015083;28;20030;-79
2023/02/20 05:10:41;;;;;;;4.63;1.15;;;;;;;9.54;100.00;101591.16;4982311;28;20034;-80
2023/02/20 05:13:10;;;;;;;5.63;2.15;;;;;;;9.59;100.00;101596.94;4998651;28;20033;-79
2023/02/20 05:15:36;;;;;;;7.35;2.20;;;;;;;9.71;100.00;101613.69;5009833;28;20088;-79
2023/02/20 05:18:02;;;;;;;5.93;1.35;;;;;;;9.51;100.00;101595.00;5014237;28;20476;-79
2023/02/20 05:23:23;;;;;;;8.98;1.92;;;;;;;9.64;100.00;101608.91;5015650;28;20026;-80
2023/02/20 05:25:49;;;;;;;13.05;1.88;;;;;;;9.66;100.00;101593.50;4982013;28;20038;-79
2023/02/20 05:28:17;;;;;;;8.05;1.95;;;;;;;9.75;100.00;101615.94;4997892;28;20389;-81
2023/02/20 05:30:42;;;;;;;4.20;1.42;;;;;;;9.71;100.00;101602.94;4981688;28;20069;-79
2023/02/20 05:33:08;;;;;;;7.60;1.30;;;;;;;9.71;100.00;101606.47;5014295;28;20076;-80
2023/02/20 05:35:34;;;;;;;12.07;2.13;;;;;;;9.77;100.00;101615.78;5014216;28;20484;-80
2023/02/20 05:38:00;;;;;;;14.13;1.92;;;;;;;9.67;100.00;101595.19;5014204;28;20080;-80
2023/02/20 05:40:28;;;;;;;10.10;1.20;;;;;;;9.76;100.00;101619.47;4997498;28;20042;-80
2023/02/20 05:42:54;;;;;;;3.28;1.02;;;;;;;9.75;100.00;101621.31;5014599;28;20116;-80
2023/02/20 05:45:19;;;;;;;3.55;1.08;;;;;;;9.72;100.00;101618.91;4997309;28;20133;-80
2023/02/20 05:47:45;;;;;;;8.32;1.30;;;;;;;9.67;100.00;101610.47;4996886;28;20486;-80
2023/02/20 05:50:11;;;;;;;8.90;1.20;;;;;;;9.63;100.00;101617.09;5013952;28;20034;-80
2023/02/20 05:52:42;;;;;;;7.10;1.60;;;;;;;9.65;100.00;101623.19;4997353;28;20501;-79
2023/02/20 05:55:10;;;;;;;3.17;1.20;;;;;;;9.66;100.00;101620.38;4998801;28;20065;-79
2023/02/20 05:57:41;;;;;;;10.32;1.73;;;;;;;9.68;100.00;101630.94;4998671;28;20040;-79
2023/02/20 06:00:07;;;;;;;14.20;1.83;;;;;;;9.69;100.00;101632.66;4997960;28;20040;-80
2023/02/20 06:02:33;;;;;;;8.07;1.20;;;;;;;9.68;100.00;101620.19;4997016;28;20034;-79
2023/02/20 06:05:00;;;;;;;14.60;2.38;;;;;;;9.66;100.00;101608.78;5013585;28;20034;-80
2023/02/20 06:07:25;;;;;;;7.55;1.05;;;;;;;9.81;100.00;101633.28;5013571;28;20100;-80
2023/02/20 06:09:51;;;;;;;13.50;1.58;;;;;;;9.81;100.00;101628.75;5013879;28;20443;-79
2023/02/20 06:12:16;;;;;;;9.75;1.60;;;;;;;9.84;100.00;101625.78;5013789;28;20439;-79
2023/02/20 06:14:42;;;;;;;12.07;2.17;;;;;;;9.78;100.00;101606.72;4997416;28;20034;-80
2023/02/20 06:17:08;;;;;;;7.07;2.53;;;;;;;9.80;100.00;101626.22;5013436;28;20403;-79
2023/02/20 06:19:38;;;;;;;4.05;1.10;;;;;;;9.73;100.00;101625.13;5013635;28;20088;-79
2023/02/20 06:22:03;;;;;;;9.90;1.38;;;;;;;9.80;100.00;101634.28;5013875;28;20065;-79
2023/02/20 06:24:29;;;;;;;8.73;1.60;;;;;;;9.76;100.00;101630.19;4981369;28;20076;-79
2023/02/20 06:26:55;;;;;;;8.25;2.33;;;;;;;9.67;100.00;101613.16;4997447;28;20495;-79
2023/02/20 06:29:20;;;;;;;14.45;2.00;;;;;;;9.77;100.00;101621.16;5013646;28;20099;-79
2023/02/20 06:31:46;;;;;;;8.48;1.30;;;;;;;9.69;100.00;101619.22;5013354;28;20026;-79
2023/02/20 06:34:13;;;;;;;6.43;1.02;;;;;;;9.76;100.00;101624.81;4981080;28;20030;-79
2023/02/20 06:36:40;;;;;;;4.45;1.38;;;;;;;9.75;100.00;101612.41;5013000;28;20025;-79
2023/02/20 06:39:08;;;;;;;10.73;1.55;;;;;;;9.69;100.00;101612.00;5013676;28;20130;-80
2023/02/20 06:41:34;;;;;;;10.45;1.77;;;;;;;9.62;100.00;101593.94;4997132;28;20038;-80
2023/02/20 06:43:59;;;;;;;4.00;1.00;;;;;;;9.63;100.00;101615.28;5013589;28;20108;-79
2023/02/20 06:46:25;;;;;;;5.05;1.13;;;;;;;9.50;100.00;101604.06;4981004;28;20490;-79
2023/02/20 06:48:53;;;;;;;6.18;1.33;;;;;;;9.59;100.00;101607.69;4997045;28;20069;-80
2023/02/20 06:51:24;;;;;;;7.32;1.40;;;;;;;9.54;100.00;101609.97;4997022;28;20069;-80
2023/02/20 06:53:50;;;;;;;8.50;1.40;;;;;;;9.51;100.00;101613.78;5013194;28;20033;-80
2023/02/20 06:56:19;;;;;;;5.20;1.20;;;;;;;9.55;100.00;101620.56;4996949;28;20033;-79
2023/02/20 06:58:46;;;;;;;3.92;0.88;;;;;;;9.54;100.00;101620.69;5012519;28;20488;-79
2023/02/20 07:01:12;;;;;;;6.03;1.23;;;;;;;9.56;100.00;101618.72;5012390;28;20412;-80
2023/02/20 07:03:38;;;;;;;4.57;1.10;;;;;;;9.57;100.00;101615.88;4980331;28;20034;-81
2023/02/20 07:06:04;;;;;;;9.43;1.55;;;;;;;9.51;100.00;101612.94;5012878;28;20036;-81
2023/02/20 07:08:30;;;;;;;10.85;1.40;;;;;;;9.51;100.00;101600.38;4996737;28;20033;-80
2023/02/20 07:10:55;;;;;;;3.13;0.70;;;;;;;9.60;100.00;101610.19;4980436;28;20120;-80
2023/02/20 07:13:21;;;;;;;10.10;2.67;;;;;;;9.54;100.00;101601.91;4995902;28;20026;-81
2023/02/20 07:15:48;;;;;;;5.70;1.60;;;;;;;9.56;100.00;101598.09;5012419;28;20057;-80
2023/02/20 07:18:16;;;;;;;10.68;1.40;;;;;;;9.67;100.00;101600.56;4979870;28;20084;-80
2023/02/20 07:20:43;;;;;;;10.45;1.45;;;;;;;9.63;100.00;101599.19;4996010;28;20045;-79
2023/02/20 07:23:09;;;;;;;8.93;1.55;;;;;;;9.60;100.00;101588.72;5012175;28;20096;-81
2023/02/20 07:25:34;;;;;;;1.55;1.00;;;;;;;9.76;100.00;101609.56;5012143;28;20093;-79
2023/02/20 07:28:00;;;;;;;7.50;0.93;;;;;;;9.71;100.00;101595.72;5012043;28;20050;-80
2023/02/20 07:30:26;;;;;;;6.75;1.55;;;;;;;9.65;100.00;101599.03;4996093;28;20026;-80
2023/02/20 07:32:51;;;;;;;6.35;1.40;;;;;;;9.56;100.00;101576.59;4995666;28;20034;-80
2023/02/20 07:35:17;;;;;;;4.25;0.95;;;;;;;9.78;100.00;101604.03;5011746;28;20080;-79
2023/02/20 07:37:43;;;;;;;5.88;1.20;;;;;;;9.81;100.00;101609.09;4979849;28;20038;-80
2023/02/20 07:40:09;;;;;;;11.15;1.35;;;;;;;9.73;100.00;101609.03;5011953;28;20473;-81
2023/02/20 07:42:34;;;;;;;3.35;0.75;;;;;;;9.80;100.00;101615.50;4995607;28;20095;-80
2023/02/20 07:45:00;;;;;;;7.35;1.63;;;;;;;9.76;100.00;101606.03;5011523;28;20120;-80
2023/02/20 07:47:26;;;;;;;5.40;1.08;;;;;;;9.77;100.00;101607.75;4995572;28;20523;-80
2023/02/20 07:49:51;;;;;;;5.35;1.00;;;;;;;9.82;100.00;101618.88;5013089;28;20479;-80
2023/02/20 07:52:17;;;;;;;7.00;1.10;;;;;;;9.78;100.00;101607.56;5011757;28;20392;-80
2023/02/20 07:54:42;;;;;;;8.02;1.45;;;;;;;9.82;100.00;101611.66;5012228;28;20116;-80
2023/02/20 07:57:08;;;;;;;4.47;1.20;;;;;;;9.81;100.00;101612.63;4995881;28;20030;-79
2023/02/20 07:59:34;;;;;;;13.93;3.17;;;;;;;9.81;100.00;101611.78;4995996;28;20038;-80
2023/02/20 08:02:00;;;;;;;11.20;3.13;;;;;;;9.76;100.00;101606.03;5012364;28;20048;-79
2023/02/20 08:04:26;;;;;;;4.28;1.38;;;;;;;9.79;100.00;101614.66;4980010;28;20033;-79
2023/02/20 08:06:54;;;;;;;8.00;2.65;;;;;;;9.79;100.00;101613.78;4996170;28;20124;-79
2023/02/20 08:09:20;;;;;;;4.90;1.02;;;;;;;9.74;100.00;101605.31;5012400;28;20041;-80
2023/02/20 08:11:45;;;;;;;5.03;1.00;;;;;;;9.87;100.00;101620.13;4980786;28;20030;-79
2023/02/20 08:14:13;;;;;;;5.63;1.25;;;;;;;9.76;100.00;101603.34;5016083;28;20035;-79
2023/02/20 08:16:38;;;;;;;7.95;1.45;;;;;;;9.97;100.00;101622.72;4999752;28;20030;-79
2023/02/20 08:19:04;;;;;;;9.07;1.55;;;;;;;9.94;100.00;101623.03;4999768;28;20042;-80
2023/02/20 08:21:30;;;;;;;5.00;1.20;;;;;;;10.00;100.00;101621.59;4999711;28;20025;-79
2023/02/20 08:23:56;;;;;;;7.38;1.10;;;;;;;10.00;100.00;101619.75;5015660;28;20025;-79
2023/02/20 08:26:21;;;;;;;6.63;1.15;;;;;;;10.07;100.00;101628.03;5015506;28;20034;-79
2023/02/20 08:28:48;;;;;;;6.43;1.55;;;;;;;10.03;100.00;101626.66;4983497;28;20034;-79
2023/02/20 08:31:15;;;;;;;3.20;0.82;;;;;;;10.08;100.00;101635.09;4999289;28;20036;-80
2023/02/20 08:33:40;;;;;;;5.93;1.45;;;;;;;10.11;100.00;101632.97;5015339;28;20498;-80
2023/02/20 08:36:22;;;;;;;3.72;1.20;;;;;;;10.11;100.00;101616.84;4983318;28;20026;-80
2023/02/20 08:38:56;;;;;;;6.40;1.58;;;;;;;10.01;100.00;101597.25;5013956;28;20030;-81
2023/02/20 08:41:22;;;;;;;2.70;1.13;;;;;;;10.20;100.00;101625.84;4998443;28;20125;-81
2023/02/20 08:43:48;;;;;;;5.03;1.65;;;;;;;10.19;100.00;101612.53;4983372;28;20141;-80
2023/02/20 08:46:13;;;;;;;5.80;1.30;;;;;;;10.37;100.00;101634.94;4999109;28;20464;-80
2023/02/20 08:48:40;;;;;;;7.45;2.13;;;;;;;10.41;100.00;101636.34;5015643;28;20379;-80
2023/02/20 08:51:11;;;;;;;9.52;1.42;;;;;;;10.43;100.00;101634.34;4999748;28;20040;-80
2023/02/20 08:53:38;;;;;;;4.70;2.15;;;;;;;10.45;100.00;101631.47;5015582;28;20038;-80
2023/02/20 08:56:05;;;;;;;3.38;0.90;;;;;;;10.45;100.00;101629.66;4983015;28;20045;-80
2023/02/20 08:58:31;;;;;;;3.42;0.95;;;;;;;10.42;100.00;101629.94;4999256;28;20476;-80
2023/02/20 09:01:04;;;;;;;7.82;1.05;;;;;;;10.47;100.00;101633.03;4982596;28;20050;-83
2023/02/20 09:03:30;;;;;;;3.08;0.70;;;;;;;10.52;100.00;101633.41;5015007;28;20022;-80
2023/02/20 09:05:56;;;;;;;3.85;0.85;;;;;;;10.60;100.00;101647.94;4982500;28;20044;-80
2023/02/20 09:08:22;;;;;;;3.92;1.45;;;;;;;10.57;100.00;101631.09;4998807;28;20038;-79
2023/02/20 09:10:48;;;;;;;2.17;1.00;;;;;;;10.69;100.00;101642.47;4998745;28;20030;-79
2023/02/20 09:13:13;;;;;;;5.00;1.20;;;;;;;10.75;100.00;101649.91;4982300;28;20080;-79
2023/02/20 09:15:39;;;;;;;2.53;0.90;;;;;;;10.76;100.00;101618.47;5014877;28;20060;-80
2023/02/20 09:18:12;;;;;;;4.50;0.90;;;;;;;10.74;100.00;101628.53;5014850;28;20030;-80
2023/02/20 09:20:39;;;;;;;1.65;0.88;;;;;;;10.93;100.00;101633.75;4998820;28;20033;-80
2023/02/20 09:23:05;;;;;;;2.30;0.98;;;;;;;11.19;100.00;101625.69;4998535;28;20045;-79
2023/02/20 09:25:31;;;;;;;4.65;1.13;;;;;;;11.21;100.00;101622.84;4998531;28;20038;-80
2023/02/20 09:27:57;;;;;;;7.97;1.60;;;;;;;11.21;100.00;101626.38;5013733;28;20025;-81
2023/02/20 09:30:26;;;;;;;4.72;1.90;;;;;;;11.32;100.00;101625.25;4998012;28;20041;-77
2023/02/20 09:32:54;;;;;;;3.42;1.17;;;;;;;11.39;100.00;101622.78;4998289;28;20030;-76
2023/02/20 09:35:26;;;;;;;5.70;2.30;;;;;;;11.41;100.00;101632.38;5014497;28;20053;-78
2023/02/20 09:37:53;;;;;;;2.95;1.17;;;;;;;11.44;100.00;101626.69;4998420;28;20037;-77
2023/02/20 09:40:27;;;;;;;4.88;1.65;;;;;;;11.40;100.00;101622.59;5014451;28;20034;-78
2023/02/20 09:42:55;;;;;;;5.10;2.00;;;;;;;11.42;100.00;101628.69;4997907;28;20034;-77
2023/02/20 09:45:24;;;;;;;4.05;1.20;;;;;;;11.42;100.00;101625.16;5013844;28;20400;-77
2023/02/20 09:48:05;;;;;;;0.60;0.60;;;;;;;11.47;100.00;101621.97;5013979;28;20026;-78
2023/02/20 09:50:49;;;;;;;2.45;0.82;;;;;;;11.33;100.00;101581.19;5015300;28;20022;-78
2023/02/20 09:53:20;;;;;;;8.70;1.50;;;;;;;11.47;100.00;101614.75;5015379;28;20029;-79
2023/02/20 09:55:47;;;;;;;1.98;1.17;;;;;;;11.50;100.00;101618.97;4997993;28;20033;-79
2023/02/20 09:58:43;;;;;;;4.18;1.63;;;;;;;11.52;100.00;101620.50;5014173;28;20199;-80
2023/02/20 10:01:14;;;;;;;5.40;1.60;;;;;;;11.55;100.00;101609.38;5013776;28;20113;-80
2023/02/20 10:03:52;;;;;;;9.25;2.42;;;;;;;11.63;100.00;101613.97;4997991;28;20079;-80
2023/02/20 10:06:19;;;;;;;7.47;3.15;;;;;;;11.60;100.00;101596.28;4981795;28;20029;-80
2023/02/20 10:08:48;;;;;;;7.47;2.60;;;;;;;11.74;100.00;101610.13;5013986;28;20056;-80
2023/02/20 10:11:23;;;;;;;3.10;1.60;;;;;;;11.75;100.00;101617.19;4997188;28;20361;-80
2023/02/20 10:13:56;;;;;;;9.80;2.17;;;;;;;11.58;100.00;101597.44;5013691;28;20037;-80
2023/02/20 10:16:36;;;;;;;3.92;1.20;;;;;;;12.05;100.00;101621.22;4997859;28;20040;-80
2023/02/20 10:19:37;;;;;;;6.25;1.00;;;;;;;12.39;100.00;101612.19;5017296;28;20041;-80
2023/02/20 10:22:12;;;;;;;10.73;1.23;;;;;;;12.88;100.00;101610.31;5012461;28;20045;-80
2023/02/20 10:24:47;;;;;;;3.10;1.58;;;;;;;12.96;100.00;101628.38;4983781;28;20026;-82
2023/02/20 10:27:30;;;;;;;1.70;0.90;;;;;;;12.74;100.00;101622.66;5034953;28;20033;-81
2023/02/20 10:29:57;;;;;;;6.68;2.67;;;;;;;12.34;100.00;101615.38;4981986;28;20040;-79
2023/02/20 10:32:35;;;;;;;5.07;3.17;;;;;;;12.15;100.00;101600.38;4997429;28;20030;-79
2023/02/20 10:35:14;;;;;;;4.47;2.13;;;;;;;12.25;100.00;101622.63;4980771;28;20119;-78
2023/02/20 10:37:42;;;;;;;4.47;1.00;;;;;;;12.38;100.00;101629.38;4997311;28;20073;-78
2023/02/20 10:40:13;;;;;;;3.20;1.10;;;;;;;12.39;100.00;101618.44;5013234;28;20038;-80
2023/02/20 10:43:10;;;;;;;4.90;1.35;;;;;;;12.32;100.00;101623.63;4997700;28;20036;-79
2023/02/20 10:45:58;;;;;;;5.15;1.20;;;;;;;12.21;100.00;101621.25;4994294;28;20104;-81
2023/02/20 10:48:28;;;;;;;3.95;1.15;;;;;;;12.06;100.00;101617.50;5013275;28;20494;-79
2023/02/20 10:51:06;;;;;;;3.42;1.00;;;;;;;12.01;100.00;101617.16;5013159;28;20029;-80
2023/02/20 10:53:39;;;;;;;4.25;0.90;;;;;;;12.14;100.00;101622.91;5029633;28;20022;-80
2023/02/20 10:56:38;;;;;;;3.10;0.90;;;;;;;12.20;100.00;101591.75;4996834;28;20084;-82
2023/02/20 10:59:16;;;;;;;6.10;1.65;;;;;;;12.86;100.00;101598.88;5014439;28;20034;-78
2023/02/20 11:01:43;;;;;;;6.03;1.20;;;;;;;13.44;100.00;101618.50;5013212;28;20136;-79
2023/02/20 11:04:19;;;;;;;5.53;1.15;;;;;;;13.52;100.00;101618.53;5012739;28;20038;-79
2023/02/20 11:07:00;;;;;;;4.38;1.00;;;;;;;13.46;100.00;101607.56;4996775;28;20113;-79
2023/02/20 11:09:26;;;;;;;6.82;1.23;;;;;;;13.18;100.00;101591.75;5012908;28;20570;-80
2023/02/20 11:12:02;;;;;;;2.75;0.95;;;;;;;13.11;100.00;101601.53;5012776;28;20030;-79
2023/02/20 11:14:42;;;;;;;6.13;1.00;;;;;;;13.03;100.00;101585.34;4981061;28;20041;-80
2023/02/20 11:17:15;;;;;;;5.05;0.93;;;;;;;12.95;100.00;101570.00;5010579;28;20121;-79
2023/02/20 11:19:46;;;;;;;14.15;0.98;;;;;;;13.25;100.00;101610.78;5010917;28;20413;-79
2023/02/20 11:22:13;;;;;;;2.63;0.70;;;;;;;13.41;100.00;101602.66;5011178;28;20073;-81
2023/02/20 11:24:40;;;;;;;0.93;0.75;;;;;;;13.43;100.00;101605.19;5012424;28;20587;-81
2023/02/20 11:27:14;;;;;;;1.55;0.80;;;;;;;13.47;100.00;101612.78;5012387;28;20477;-78
2023/02/20 11:29:46;;;;;;;2.70;0.88;;;;;;;13.54;100.00;101600.25;4996501;28;20058;-79
2023/02/20 11:32:39;;;;;;;2.57;0.80;;;;;;;13.33;100.00;101583.78;4996423;28;20034;-79
2023/02/20 11:35:17;;;;;;;1.65;0.80;;;;;;;13.35;100.00;101606.91;4996092;28;20022;-78
2023/02/20 11:37:48;;;;;;;2.05;0.60;;;;;;;13.44;100.00;101577.16;5028789;28;20037;-77
2023/02/20 11:40:27;;;;;;;0.70;0.60;;;;;;;13.96;98.62;101587.41;4996428;28;20030;-78
2023/02/20 11:42:54;;;;;;;1.80;0.88;;;;;;;13.82;98.38;101586.28;4996352;28;20365;-78
2023/02/20 11:45:24;;;;;;;5.65;2.08;;;;;;;13.79;99.54;101601.00;5012265;28;20045;-78
2023/02/20 11:48:05;;;;;;;2.90;1.23;;;;;;;13.84;100.00;101603.19;4999553;28;20050;-78
2023/02/20 11:50:51;;;;;;;0.60;0.60;;;;;;;14.25;96.47;101592.94;5032706;28;20404;-78
2023/02/20 11:53:19;;;;;;;1.27;0.85;;;;;;;13.90;99.32;101594.34;5000424;28;20038;-79
2023/02/20 11:55:46;;;;;;;1.55;0.70;;;;;;;13.93;99.65;101595.88;5016259;28;20468;-79